Time;durP1;ratioP1;P1;durP2;ratioP2;P2;SDS_P1;SDS_P2;PMS_P1;PMS_P2;Temp;Humidity;BMP_temperature;BMP_pressure;BME280_temperature;BME280_humidity;BME280_pressure;Samples;Min_cycle;Max_cycle;Signal;HPM_P1;HPM_P2
2021/03/03 00:02:02;;;;;;;38.28;18.70;;;;;;;4.42;59.05;97796.28;5073291;28;20385;-77
2021/03/03 00:04:28;;;;;;;34.35;19.05;;;;;;;4.38;59.13;97798.34;5072865;28;20043;-76
2021/03/03 00:06:54;;;;;;;36.40;17.55;;;;;;;4.36;58.96;97804.63;5072459;28;20045;-77
2021/03/03 00:09:21;;;;;;;36.78;18.17;;;;;;;4.34;59.28;97793.56;5072711;28;20403;-77
2021/03/03 00:11:47;;;;;;;36.28;18.90;;;;;;;4.34;59.40;97802.19;5073092;28;20438;-76
2021/03/03 00:14:14;;;;;;;40.65;20.15;;;;;;;4.35;59.63;97797.81;5072961;28;20041;-77
2021/03/03 00:16:40;;;;;;;41.58;20.95;;;;;;;4.34;59.68;97789.19;5072713;28;20040;-76
2021/03/03 00:19:06;;;;;;;42.47;19.50;;;;;;;4.35;59.57;97787.44;5075693;28;20048;-77
2021/03/03 00:21:32;;;;;;;43.80;20.70;;;;;;;4.34;59.68;97786.59;5076630;28;20037;-76
2021/03/03 00:23:59;;;;;;;38.00;19.65;;;;;;;4.35;59.97;97783.06;5076730;28;20040;-76
2021/03/03 00:26:27;;;;;;;40.63;20.80;;;;;;;4.36;60.17;97781.25;5075432;28;20040;-77
2021/03/03 00:28:55;;;;;;;41.22;19.25;;;;;;;4.36;60.01;97782.06;5076148;28;20044;-76
2021/03/03 00:31:22;;;;;;;40.63;19.83;;;;;;;4.37;60.17;97786.31;5076912;28;20036;-76
2021/03/03 00:33:49;;;;;;;44.45;20.73;;;;;;;4.35;60.01;97775.25;5076767;28;20041;-77
2021/03/03 00:36:15;;;;;;;43.55;19.92;;;;;;;4.35;60.08;97783.06;5075928;28;20043;-77
2021/03/03 00:38:41;;;;;;;40.33;20.88;;;;;;;4.33;60.21;97778.97;5076286;28;20040;-76
2021/03/03 00:41:08;;;;;;;40.72;20.80;;;;;;;4.32;60.40;97777.31;5076250;28;20396;-77
2021/03/03 00:43:34;;;;;;;40.40;20.55;;;;;;;4.31;60.54;97773.91;5075912;28;20032;-77
2021/03/03 00:46:01;;;;;;;40.97;19.77;;;;;;;4.29;60.63;97773.25;5076413;28;20465;-77
2021/03/03 00:48:27;;;;;;;43.88;21.02;;;;;;;4.26;60.60;97771.75;5076200;28;20040;-77
2021/03/03 00:50:53;;;;;;;38.97;19.15;;;;;;;4.22;60.53;97772.16;5076415;28;20037;-77
2021/03/03 00:53:19;;;;;;;37.40;18.70;;;;;;;4.17;60.45;97767.41;5075942;28;20032;-77
2021/03/03 00:55:53;;;;;;;40.65;19.10;;;;;;;4.13;61.23;97775.66;5076367;28;20404;-77
2021/03/03 00:58:19;;;;;;;41.15;21.27;;;;;;;4.12;60.91;97774.84;5060688;28;20028;-77
2021/03/03 01:00:46;;;;;;;39.80;20.45;;;;;;;4.10;61.07;97768.97;5076550;28;20396;-77
2021/03/03 01:03:13;;;;;;;45.85;21.10;;;;;;;4.12;61.27;97772.25;5075651;28;20051;-77
2021/03/03 01:05:41;;;;;;;42.05;19.95;;;;;;;4.12;61.24;97776.63;5076014;28;20369;-76
2021/03/03 01:08:08;;;;;;;42.63;20.75;;;;;;;4.08;61.16;97768.28;5075841;28;20040;-77
2021/03/03 01:10:34;;;;;;;38.20;18.13;;;;;;;4.03;61.23;97768.72;5064561;28;20048;-77
2021/03/03 01:13:01;;;;;;;39.80;19.42;;;;;;;4.00;61.10;97773.38;5075682;28;20032;-76
2021/03/03 01:15:27;;;;;;;42.38;20.08;;;;;;;3.94;61.20;97764.38;5074993;28;20067;-77
2021/03/03 01:17:59;;;;;;;35.13;19.55;;;;;;;3.93;61.46;97774.94;5075564;28;20063;-77
2021/03/03 01:20:28;;;;;;;42.03;21.02;;;;;;;3.92;61.60;97770.69;5075332;28;20396;-77
2021/03/03 01:22:55;;;;;;;39.45;20.40;;;;;;;3.90;61.66;97759.63;5075443;28;20032;-77
2021/03/03 01:25:21;;;;;;;38.17;19.85;;;;;;;3.87;61.57;97758.13;5076162;28;20043;-76
2021/03/03 01:27:47;;;;;;;36.63;18.48;;;;;;;3.82;61.68;97762.94;5075398;28;20032;-76
2021/03/03 01:30:14;;;;;;;40.53;19.27;;;;;;;3.79;61.70;97755.44;5074829;28;20045;-77
2021/03/03 01:32:41;;;;;;;40.88;18.50;;;;;;;3.78;61.92;97753.78;5075345;28;20495;-77
2021/03/03 01:35:07;;;;;;;34.35;18.20;;;;;;;3.78;61.81;97761.56;5075149;28;20044;-77
2021/03/03 01:37:34;;;;;;;34.65;17.92;;;;;;;3.76;62.19;97755.72;5074976;28;20024;-76
2021/03/03 01:40:00;;;;;;;35.50;16.88;;;;;;;3.75;62.13;97747.13;5075169;28;20052;-77
2021/03/03 01:42:26;;;;;;;40.20;18.88;;;;;;;3.76;62.37;97747.94;5073668;28;20043;-77
2021/03/03 01:44:52;;;;;;;33.35;18.33;;;;;;;3.76;62.48;97745.31;5075251;28;20059;-76
2021/03/03 01:47:18;;;;;;;39.28;18.75;;;;;;;3.78;62.61;97746.00;5075080;28;20388;-77
2021/03/03 01:49:45;;;;;;;35.97;17.83;;;;;;;3.80;62.54;97744.09;5074631;28;20067;-77
2021/03/03 01:52:11;;;;;;;37.33;17.38;;;;;;;3.80;62.74;97741.50;5073697;28;20044;-77
2021/03/03 01:54:37;;;;;;;33.45;17.83;;;;;;;3.77;62.43;97734.81;5074563;28;20404;-77
2021/03/03 01:57:05;;;;;;;37.15;18.60;;;;;;;3.73;62.53;97737.84;5075260;28;20052;-77
2021/03/03 01:59:31;;;;;;;36.22;17.10;;;;;;;3.65;62.36;97731.59;5074521;28;20051;-76
2021/03/03 02:01:57;;;;;;;34.40;17.70;;;;;;;3.60;62.32;97733.78;5074730;28;20040;-77
2021/03/03 02:04:24;;;;;;;35.83;18.20;;;;;;;3.54;62.65;97726.56;5073620;28;20392;-77
2021/03/03 02:07:07;;;;;;;37.53;17.67;;;;;;;3.51;62.99;97726.88;5074527;28;20036;-77
2021/03/03 02:09:46;;;;;;;38.60;17.88;;;;;;;3.44;63.30;97731.81;5074758;28;20052;-77
2021/03/03 02:12:37;;;;;;;38.38;18.73;;;;;;;3.44;63.98;97731.81;5061888;28;20578;-76
2021/03/03 02:15:06;;;;;;;33.35;17.55;;;;;;;3.43;63.36;97732.75;5074474;28;20048;-77
2021/03/03 02:17:32;;;;;;;35.53;17.02;;;;;;;3.45;63.35;97733.44;5074714;28;20460;-77
2021/03/03 02:20:06;;;;;;;32.47;16.65;;;;;;;3.46;63.60;97739.44;5074175;28;20048;-77
2021/03/03 02:22:54;;;;;;;32.70;16.45;;;;;;;3.47;63.91;97743.66;5059238;28;20044;-77
2021/03/03 02:25:28;;;;;;;32.75;17.95;;;;;;;3.49;64.50;97746.94;5073330;28;20468;-77
2021/03/03 02:28:01;;;;;;;;;;;;;;;3.48;65.16;97758.25;5074489;28;20457;-77
2021/03/03 02:30:29;;;;;;;35.28;16.70;;;;;;;3.45;63.82;97746.41;5073945;28;19919;-77
2021/03/03 02:32:57;;;;;;;31.63;16.67;;;;;;;3.42;63.71;97736.31;5074319;28;20040;-77
2021/03/03 02:35:25;;;;;;;30.70;15.93;;;;;;;3.39;63.60;97735.78;5073841;28;20381;-76
2021/03/03 02:37:52;;;;;;;31.10;16.85;;;;;;;3.35;63.58;97737.81;5074164;28;20040;-76
2021/03/03 02:40:19;;;;;;;34.47;17.55;;;;;;;3.26;63.80;97733.47;5073756;28;20037;-76
2021/03/03 02:42:46;;;;;;;31.27;16.42;;;;;;;3.23;63.79;97728.56;5073842;28;20388;-76
2021/03/03 02:45:15;;;;;;;30.10;15.77;;;;;;;3.24;64.05;97727.63;5074006;28;20396;-76
2021/03/03 02:47:44;;;;;;;29.65;16.35;;;;;;;3.24;63.98;97714.66;5073965;28;20040;-76
2021/03/03 02:50:11;;;;;;;36.55;17.30;;;;;;;3.24;64.12;97712.06;5073626;28;20032;-76
2021/03/03 02:52:57;;;;;;;32.90;16.17;;;;;;;3.25;65.32;97708.50;5073075;28;20052;-76
2021/03/03 02:55:29;;;;;;;37.05;17.38;;;;;;;3.22;64.71;97706.19;5073857;28;20044;-76
2021/03/03 02:57:57;;;;;;;30.05;16.30;;;;;;;3.19;64.27;97709.06;5073693;28;20461;-77
2021/03/03 03:00:41;;;;;;;35.75;15.82;;;;;;;3.16;64.46;97720.53;5073692;28;20057;-77
2021/03/03 03:03:27;;;;;;;33.58;17.67;;;;;;;3.17;65.05;97724.78;5072892;28;20052;-77
2021/03/03 03:06:22;;;;;;;35.33;16.92;;;;;;;3.15;65.69;97726.69;5074111;28;20342;-77
2021/03/03 03:08:51;;;;;;;29.58;15.82;;;;;;;3.16;64.88;97719.72;5073180;28;20049;-77
2021/03/03 03:11:25;;;;;;;36.03;16.73;;;;;;;3.15;65.49;97724.09;5073220;28;20084;-77
2021/03/03 03:13:58;;;;;;;32.88;16.17;;;;;;;3.15;64.96;97718.91;5059490;28;20049;-76
2021/03/03 03:16:24;;;;;;;37.65;18.10;;;;;;;3.15;64.73;97716.31;5073825;28;20037;-76
2021/03/03 03:18:55;;;;;;;35.45;17.42;;;;;;;3.11;65.10;97716.72;5073747;28;20033;-77
2021/03/03 03:21:24;;;;;;;31.52;16.23;;;;;;;3.09;64.77;97716.03;5072962;28;20107;-77
2021/03/03 03:23:51;;;;;;;31.45;16.17;;;;;;;3.07;64.79;97713.59;5058641;28;20495;-77
2021/03/03 03:26:19;;;;;;;38.45;17.33;;;;;;;3.05;65.04;97718.91;5073603;28;20029;-77
2021/03/03 03:28:45;;;;;;;35.47;17.55;;;;;;;3.03;65.05;97722.59;5073330;28;20060;-77
2021/03/03 03:31:11;;;;;;;35.40;17.17;;;;;;;3.04;65.19;97716.44;5072910;28;20047;-76
2021/03/03 03:33:38;;;;;;;37.70;17.88;;;;;;;3.03;65.31;97720.81;5073087;28;20051;-77
2021/03/03 03:36:05;;;;;;;34.33;16.38;;;;;;;3.02;65.32;97715.78;5073399;28;20029;-77
2021/03/03 03:38:33;;;;;;;36.47;16.60;;;;;;;3.03;65.53;97715.66;5073315;28;20056;-77
2021/03/03 03:41:05;;;;;;;35.75;17.75;;;;;;;3.03;65.66;97718.22;5073837;28;20043;-77
2021/03/03 03:43:32;;;;;;;41.33;18.05;;;;;;;3.03;65.45;97723.41;5073390;28;20111;-76
2021/03/03 03:46:01;;;;;;;34.00;17.55;;;;;;;3.04;65.60;97734.59;5072830;28;20464;-77
2021/03/03 03:48:28;;;;;;;34.35;17.02;;;;;;;3.06;65.41;97732.69;5073066;28;20038;-77
2021/03/03 03:50:55;;;;;;;36.17;17.25;;;;;;;3.07;65.50;97729.16;5073109;28;20047;-77
2021/03/03 03:53:22;;;;;;;37.55;17.55;;;;;;;3.09;65.57;97736.75;5074744;28;20033;-77
2021/03/03 03:55:48;;;;;;;32.67;18.00;;;;;;;3.08;65.58;97728.19;5077068;28;20499;-77
2021/03/03 03:58:14;;;;;;;37.33;18.33;;;;;;;3.08;65.57;97733.38;5077073;28;20037;-77
2021/03/03 04:00:41;;;;;;;35.55;17.02;;;;;;;3.08;65.73;97741.13;5076959;28;20041;-77
2021/03/03 04:03:07;;;;;;;33.50;17.13;;;;;;;3.07;65.63;97739.53;5076754;28;20477;-77
2021/03/03 04:05:33;;;;;;;34.90;17.80;;;;;;;3.05;65.89;97731.88;5077056;28;20032;-77
2021/03/03 04:07:59;;;;;;;38.25;17.60;;;;;;;3.04;65.79;97735.44;5076822;28;20036;-77
2021/03/03 04:10:27;;;;;;;32.35;17.17;;;;;;;3.05;65.88;97731.06;5075587;28;20052;-77
2021/03/03 04:12:54;;;;;;;32.58;16.90;;;;;;;3.05;65.68;97731.06;5077118;28;20041;-77
2021/03/03 04:15:22;;;;;;;36.40;18.13;;;;;;;3.05;65.97;97729.28;5076566;28;20036;-77
2021/03/03 04:17:48;;;;;;;34.10;17.92;;;;;;;3.06;66.02;97732.69;5076686;28;20036;-77
2021/03/03 04:20:15;;;;;;;34.67;17.27;;;;;;;3.05;65.81;97741.44;5076577;28;20032;-77
2021/03/03 04:22:42;;;;;;;36.45;18.15;;;;;;;3.05;65.91;97746.63;5076700;28;20028;-77
2021/03/03 04:25:13;;;;;;;36.60;18.67;;;;;;;3.07;66.16;97736.09;5076543;28;20037;-77
2021/03/03 04:27:40;;;;;;;33.13;17.67;;;;;;;3.04;66.06;97732.00;5076195;28;20028;-77
2021/03/03 04:30:09;;;;;;;32.85;18.05;;;;;;;3.03;65.95;97738.16;5076736;28;20036;-77
2021/03/03 04:32:35;;;;;;;33.70;17.10;;;;;;;3.00;65.84;97741.84;5075307;28;20028;-77
2021/03/03 04:35:02;;;;;;;35.75;17.70;;;;;;;2.97;66.08;97725.75;5076332;28;20041;-77
2021/03/03 04:37:28;;;;;;;35.30;17.17;;;;;;;2.96;66.21;97722.34;5075362;28;20362;-77
2021/03/03 04:39:54;;;;;;;36.20;19.15;;;;;;;2.94;66.23;97732.03;5076258;28;20040;-77
2021/03/03 04:42:21;;;;;;;36.20;17.80;;;;;;;2.93;66.23;97727.78;5076066;28;20032;-77
2021/03/03 04:44:47;;;;;;;34.53;18.30;;;;;;;2.91;66.14;97728.88;5076206;28;20040;-77
2021/03/03 04:47:13;;;;;;;31.17;17.45;;;;;;;2.90;66.43;97733.25;5076025;28;20393;-77
2021/03/03 04:49:40;;;;;;;33.15;16.73;;;;;;;2.91;66.15;97729.69;5075717;28;20045;-77
2021/03/03 04:52:06;;;;;;;34.28;17.45;;;;;;;2.92;66.41;97730.50;5076474;28;20036;-77
2021/03/03 04:54:34;;;;;;;40.92;18.55;;;;;;;2.94;66.70;97728.59;5075916;28;20043;-77
2021/03/03 04:57:03;;;;;;;37.15;18.50;;;;;;;2.94;66.51;97728.59;5075711;28;20400;-77
2021/03/03 04:59:29;;;;;;;34.63;17.95;;;;;;;2.93;66.55;97724.38;5076103;28;20040;-77
2021/03/03 05:01:55;;;;;;;33.92;16.48;;;;;;;2.90;66.49;97725.50;5075633;28;20412;-77
2021/03/03 05:04:21;;;;;;;35.92;16.92;;;;;;;2.87;66.51;97727.53;5075059;28;20051;-77
2021/03/03 05:06:48;;;;;;;39.03;18.08;;;;;;;2.84;66.60;97719.06;5075344;28;20051;-77
2021/03/03 05:09:14;;;;;;;37.72;18.83;;;;;;;2.84;66.49;97718.25;5075424;28;20055;-77
2021/03/03 05:11:40;;;;;;;34.72;18.48;;;;;;;2.83;66.71;97714.88;5075485;28;20079;-78
2021/03/03 05:14:06;;;;;;;39.08;19.27;;;;;;;2.84;66.91;97708.72;5066763;28;20051;-77
2021/03/03 05:16:33;;;;;;;39.85;20.20;;;;;;;2.87;67.06;97717.16;5075582;28;20040;-77
2021/03/03 05:18:59;;;;;;;39.63;18.77;;;;;;;2.90;67.03;97703.91;5075054;28;20044;-77
2021/03/03 05:21:25;;;;;;;36.30;18.00;;;;;;;2.92;66.98;97697.66;5076259;28;20039;-77
2021/03/03 05:23:51;;;;;;;37.10;19.98;;;;;;;2.95;66.93;97705.16;5075637;28;20396;-77
2021/03/03 05:26:17;;;;;;;35.78;18.60;;;;;;;2.97;67.09;97705.84;5075375;28;20032;-77
2021/03/03 05:28:44;;;;;;;38.00;19.40;;;;;;;2.99;66.97;97700.50;5074301;28;20055;-77
2021/03/03 05:31:13;;;;;;;35.90;18.90;;;;;;;3.00;67.08;97705.56;5075051;28;20037;-77
2021/03/03 05:33:41;;;;;;;38.78;19.63;;;;;;;3.02;67.04;97695.03;5075816;28;20222;-77
2021/03/03 05:36:08;;;;;;;34.38;18.75;;;;;;;3.02;67.02;97690.69;5074836;28;20469;-77
2021/03/03 05:38:39;;;;;;;36.70;18.95;;;;;;;3.00;66.79;97691.78;5075555;28;20037;-77
2021/03/03 05:41:07;;;;;;;35.53;18.25;;;;;;;2.95;66.66;97702.56;5075362;28;20045;-77
2021/03/03 05:43:34;;;;;;;34.90;18.15;;;;;;;2.90;66.72;97699.56;5075094;28;20040;-77
2021/03/03 05:46:02;;;;;;;39.75;18.23;;;;;;;2.86;66.81;97706.00;5074979;28;20044;-77
2021/03/03 05:48:55;;;;;;;34.72;19.05;;;;;;;2.83;67.16;97707.09;5074987;28;20043;-77
2021/03/03 05:51:25;;;;;;;36.20;18.17;;;;;;;2.77;67.13;97710.22;5070545;28;20044;-77
2021/03/03 05:53:52;;;;;;;38.42;18.55;;;;;;;2.74;66.80;97704.50;5075066;28;20029;-78
2021/03/03 05:56:22;;;;;;;38.55;18.83;;;;;;;2.68;67.19;97715.41;5074763;28;20036;-77
2021/03/03 05:59:10;;;;;;;34.65;18.63;;;;;;;2.63;67.00;97721.81;5073650;28;20032;-77
2021/03/03 06:01:37;;;;;;;35.47;17.40;;;;;;;2.60;67.07;97722.09;5075183;28;20037;-77
2021/03/03 06:04:06;;;;;;;40.15;18.77;;;;;;;2.61;67.16;97726.31;5074556;28;20040;-77
2021/03/03 06:06:32;;;;;;;37.72;17.85;;;;;;;2.62;67.36;97727.97;5074320;28;20063;-77
2021/03/03 06:08:58;;;;;;;39.63;19.08;;;;;;;2.64;67.22;97726.00;5074362;28;20044;-77
2021/03/03 06:11:24;;;;;;;36.58;18.23;;;;;;;2.63;67.44;97721.00;5073340;28;20056;-77
2021/03/03 06:13:51;;;;;;;36.17;18.58;;;;;;;2.60;67.12;97729.88;5074144;28;20040;-77
2021/03/03 06:16:18;;;;;;;37.92;19.17;;;;;;;2.57;67.18;97721.53;5074574;28;20036;-77
2021/03/03 06:18:44;;;;;;;39.03;18.75;;;;;;;2.55;67.29;97719.06;5074341;28;20045;-77
2021/03/03 06:21:25;;;;;;;38.67;19.77;;;;;;;2.55;67.76;97711.31;5072832;28;20381;-77
2021/03/03 06:24:03;;;;;;;35.13;18.42;;;;;;;2.58;67.73;97715.38;5073436;28;20063;-77
2021/03/03 06:26:29;;;;;;;36.47;17.70;;;;;;;2.60;67.48;97710.91;5073682;28;20033;-77
2021/03/03 06:28:56;;;;;;;37.92;18.40;;;;;;;2.62;67.61;97707.25;5074168;28;20037;-77
2021/03/03 06:31:38;;;;;;;39.22;19.75;;;;;;;2.67;68.24;97708.56;5074075;28;20044;-77
2021/03/03 06:34:12;;;;;;;38.55;19.55;;;;;;;2.71;67.78;97715.97;5074014;28;20373;-77
2021/03/03 06:36:46;;;;;;;37.92;19.13;;;;;;;2.76;67.97;97718.94;5074161;28;20052;-77
2021/03/03 06:39:39;;;;;;;33.55;18.25;;;;;;;2.82;68.60;97727.94;5073932;28;20040;-77
2021/03/03 06:42:10;;;;;;;42.15;20.85;;;;;;;2.83;68.07;97724.38;5071184;28;20044;-77
2021/03/03 06:44:49;;;;;;;39.13;18.92;;;;;;;2.87;68.11;97738.69;5073642;28;20488;-77
2021/03/03 06:47:16;;;;;;;36.17;19.40;;;;;;;2.89;67.71;97736.78;5073682;28;20041;-77
2021/03/03 06:49:42;;;;;;;35.55;20.30;;;;;;;2.88;67.70;97734.34;5072602;28;20491;-77
2021/03/03 06:52:08;;;;;;;36.13;19.30;;;;;;;2.88;67.55;97740.34;5072621;28;20036;-77
2021/03/03 06:54:34;;;;;;;37.03;19.60;;;;;;;2.86;67.60;97737.09;5074001;28;20041;-77
2021/03/03 06:57:07;;;;;;;35.55;19.23;;;;;;;2.88;67.94;97740.34;5073421;28;20388;-77
2021/03/03 06:59:34;;;;;;;38.63;20.08;;;;;;;2.94;67.75;97741.56;5073607;28;20036;-77
2021/03/03 07:02:10;;;;;;;44.58;20.77;;;;;;;2.97;67.81;97738.72;5073576;28;20362;-77
2021/03/03 07:04:37;;;;;;;37.08;20.50;;;;;;;3.01;67.96;97742.66;5073703;28;20396;-77
2021/03/03 07:07:09;;;;;;;39.08;20.05;;;;;;;3.04;67.97;97737.19;5073049;28;20107;-77
2021/03/03 07:09:52;;;;;;;39.35;21.15;;;;;;;3.10;68.04;97738.41;5073885;28;20055;-77
2021/03/03 07:12:23;;;;;;;36.55;20.88;;;;;;;3.14;67.88;97738.00;5073652;28;20048;-77
2021/03/03 07:15:01;;;;;;;41.53;20.95;;;;;;;3.20;68.30;97734.03;5073757;28;20059;-77
2021/03/03 07:17:41;;;;;;;40.90;21.58;;;;;;;3.24;68.77;97733.63;5073109;28;20041;-76
2021/03/03 07:20:10;;;;;;;39.35;20.13;;;;;;;3.30;67.98;97736.59;5073581;28;20488;-77
2021/03/03 07:22:41;;;;;;;36.03;18.55;;;;;;;3.36;68.23;97736.88;5073634;28;20033;-77
2021/03/03 07:25:08;;;;;;;36.38;19.35;;;;;;;3.43;68.10;97747.50;5073191;28;20048;-77
2021/03/03 07:27:36;;;;;;;40.90;18.85;;;;;;;3.50;68.04;97750.34;5072610;28;20034;-77
2021/03/03 07:30:07;;;;;;;95.15;58.22;;;;;;;3.53;68.00;97748.28;5073343;28;20032;-77
2021/03/03 07:32:34;;;;;;;68.88;40.83;;;;;;;3.56;67.68;97749.78;5073447;28;20025;-77
2021/03/03 07:35:00;;;;;;;60.50;33.95;;;;;;;3.52;67.68;97749.25;5073471;28;20276;-77
2021/03/03 07:37:38;;;;;;;49.33;25.85;;;;;;;3.46;68.15;97736.81;5073548;28;20032;-77
2021/03/03 07:40:10;;;;;;;41.75;21.70;;;;;;;3.45;67.92;97738.63;5073363;28;20492;-77
2021/03/03 07:42:38;;;;;;;86.97;47.80;;;;;;;3.48;67.61;97732.31;5073274;28;20388;-76
2021/03/03 07:45:13;;;;;;;57.15;30.65;;;;;;;3.54;68.11;97736.94;5073180;28;20051;-77
2021/03/03 07:47:41;;;;;;;38.55;20.90;;;;;;;3.60;67.90;97733.78;5073548;28;20043;-77
2021/03/03 07:50:11;;;;;;;40.25;20.20;;;;;;;3.66;68.01;97737.59;5072956;28;20044;-77
2021/03/03 07:52:43;;;;;;;38.25;21.45;;;;;;;3.73;67.83;97740.44;5073058;28;20390;-77
2021/03/03 07:55:10;;;;;;;38.90;21.77;;;;;;;3.81;67.85;97746.53;5073146;28;20044;-77
2021/03/03 07:57:40;;;;;;;39.40;20.25;;;;;;;3.88;67.87;97744.19;5073199;28;20315;-77
2021/03/03 08:00:19;;;;;;;37.50;20.02;;;;;;;3.94;67.71;97740.22;5072824;28;20033;-77
2021/03/03 08:02:49;;;;;;;37.63;18.70;;;;;;;4.00;67.51;97750.84;5073050;28;20040;-76
2021/03/03 08:05:39;;;;;;;38.78;20.88;;;;;;;4.07;67.02;97748.47;5072649;28;20037;-77
2021/03/03 08:08:22;;;;;;;36.65;20.63;;;;;;;4.13;67.09;97750.50;5072984;28;20063;-77
2021/03/03 08:11:09;;;;;;;39.05;18.83;;;;;;;4.19;66.77;97739.53;5072727;28;20057;-77
2021/03/03 08:13:38;;;;;;;34.00;18.55;;;;;;;4.24;66.96;97741.69;5072737;28;20040;-77
2021/03/03 08:16:09;;;;;;;30.67;16.55;;;;;;;4.47;69.40;97735.13;5073404;28;20037;-77
2021/03/03 08:18:36;;;;;;;35.55;18.15;;;;;;;4.66;67.41;97735.94;5073166;28;20031;-77
2021/03/03 08:21:22;;;;;;;37.05;20.35;;;;;;;4.71;65.75;97732.91;5072682;28;20044;-77
2021/03/03 08:23:52;;;;;;;39.28;20.77;;;;;;;4.71;66.46;97738.13;5061510;28;20039;-77
2021/03/03 08:26:19;;;;;;;43.22;20.10;;;;;;;4.75;66.36;97739.44;5072705;28;20400;-76
2021/03/03 08:29:07;;;;;;;36.28;19.50;;;;;;;4.77;65.93;97738.31;5072532;28;20035;-77
2021/03/03 08:31:37;;;;;;;32.65;18.63;;;;;;;4.83;66.27;97735.13;5072943;28;20396;-76
2021/03/03 08:34:10;;;;;;;35.35;19.13;;;;;;;4.86;66.16;97732.22;5072571;28;20040;-77
2021/03/03 08:36:37;;;;;;;38.40;18.80;;;;;;;4.91;65.93;97739.56;5072834;28;20049;-77
2021/03/03 08:39:03;;;;;;;35.85;19.52;;;;;;;4.96;65.94;97732.16;5073688;28;20028;-77
2021/03/03 08:41:34;;;;;;;37.58;19.58;;;;;;;4.95;65.57;97729.69;5076372;28;20036;-76
2021/03/03 08:44:15;;;;;;;38.40;19.83;;;;;;;4.91;64.79;97738.75;5076727;28;20040;-76
2021/03/03 08:46:42;;;;;;;34.28;19.75;;;;;;;4.89;65.53;97738.91;5075751;28;20044;-77
2021/03/03 08:49:08;;;;;;;36.28;20.23;;;;;;;4.86;65.25;97739.22;5076060;28;20029;-77
2021/03/03 08:51:40;;;;;;;34.58;18.88;;;;;;;4.86;65.18;97744.41;5075526;28;20465;-77
2021/03/03 08:54:36;;;;;;;38.70;21.70;;;;;;;4.93;65.20;97739.41;5076358;28;20067;-77
2021/03/03 08:57:02;;;;;;;37.58;18.48;;;;;;;4.97;65.28;97746.75;5076066;28;20487;-77
2021/03/03 08:59:29;;;;;;;41.38;19.58;;;;;;;5.03;65.18;97743.56;5075809;28;20047;-77
2021/03/03 09:02:22;;;;;;;40.80;20.10;;;;;;;5.09;64.88;97742.97;5075669;28;20033;-77
2021/03/03 09:04:55;;;;;;;35.10;18.88;;;;;;;5.13;65.04;97742.69;5075369;28;20044;-76
2021/03/03 09:07:32;;;;;;;39.08;20.20;;;;;;;5.15;64.28;97736.34;5075897;28;20408;-77
2021/03/03 09:10:06;;;;;;;39.33;20.27;;;;;;;5.19;64.33;97742.88;5067807;28;20048;-76
2021/03/03 09:12:39;;;;;;;38.75;19.90;;;;;;;5.25;64.64;97733.66;5075497;28;20047;-77
2021/03/03 09:15:08;;;;;;;35.50;19.15;;;;;;;5.34;64.67;97722.34;5075088;28;20056;-77
2021/03/03 09:17:36;;;;;;;40.13;20.17;;;;;;;5.34;64.53;97724.94;5075633;28;20040;-76
2021/03/03 09:20:12;;;;;;;38.67;21.58;;;;;;;5.33;64.23;97736.28;5075389;28;20040;-77
2021/03/03 09:22:43;;;;;;;39.47;20.27;;;;;;;5.33;64.44;97733.69;5075759;28;20032;-77
2021/03/03 09:25:20;;;;;;;44.58;22.15;;;;;;;5.40;64.57;97726.94;5075689;28;20473;-77
2021/03/03 09:27:50;;;;;;;41.25;20.98;;;;;;;5.47;64.38;97727.13;5075725;28;20397;-77
2021/03/03 09:30:19;;;;;;;37.95;19.88;;;;;;;5.51;64.40;97733.66;5075292;28;20044;-77
2021/03/03 09:32:48;;;;;;;47.35;23.00;;;;;;;5.60;64.22;97731.91;5075457;28;20040;-77
2021/03/03 09:35:17;;;;;;;43.42;22.25;;;;;;;5.58;64.36;97729.47;5075180;28;20457;-77
2021/03/03 09:37:47;;;;;;;43.63;21.98;;;;;;;5.61;64.20;97723.97;5075028;28;20043;-77
2021/03/03 09:40:16;;;;;;;43.28;21.25;;;;;;;5.63;64.28;97724.63;5075006;28;20045;-77
2021/03/03 09:42:58;;;;;;;40.90;22.02;;;;;;;5.68;64.29;97730.16;5075087;28;20052;-77
2021/03/03 09:45:27;;;;;;;37.63;21.40;;;;;;;5.78;64.27;97726.66;5074363;28;20045;-77
2021/03/03 09:47:55;;;;;;;41.08;21.17;;;;;;;5.85;64.23;97732.84;5074978;28;20040;-77
2021/03/03 09:50:24;;;;;;;43.83;22.67;;;;;;;6.00;64.29;97733.09;5074821;28;20041;-77
2021/03/03 09:52:58;;;;;;;42.17;22.02;;;;;;;6.00;63.76;97717.47;5074768;28;20031;-77
2021/03/03 09:55:29;;;;;;;39.05;20.95;;;;;;;6.11;64.00;97725.03;5075242;28;20036;-76
2021/03/03 09:57:57;;;;;;;48.83;22.38;;;;;;;6.24;63.97;97717.56;5074623;28;20040;-77
2021/03/03 10:00:26;;;;;;;51.40;23.63;;;;;;;6.39;63.91;97720.38;5074730;28;20036;-77
2021/03/03 10:02:54;;;;;;;45.70;22.38;;;;;;;6.54;63.75;97725.78;5074745;28;20036;-77
2021/03/03 10:05:23;;;;;;;38.03;20.88;;;;;;;6.65;63.43;97725.44;5074463;28;20045;-77
2021/03/03 10:07:55;;;;;;;36.10;19.75;;;;;;;6.58;62.81;97719.25;5074544;28;20040;-77
2021/03/03 10:10:24;;;;;;;46.67;21.23;;;;;;;6.60;63.11;97722.53;5074299;28;20060;-76
2021/03/03 10:12:51;;;;;;;35.97;20.30;;;;;;;6.65;63.19;97722.84;5074271;28;20366;-77
2021/03/03 10:15:29;;;;;;;37.42;20.42;;;;;;;6.69;62.13;97718.13;5074515;28;20384;-77
2021/03/03 10:17:56;;;;;;;38.22;20.48;;;;;;;6.75;62.87;97724.50;5074585;28;20040;-77
2021/03/03 10:20:38;;;;;;;40.08;20.48;;;;;;;6.73;61.74;97718.63;5074512;28;20028;-76
2021/03/03 10:23:09;;;;;;;37.22;19.45;;;;;;;6.77;62.35;97722.53;5074317;28;20040;-77
2021/03/03 10:25:58;;;;;;;33.17;17.58;;;;;;;6.83;61.13;97720.09;5074656;28;20388;-77
2021/03/03 10:28:27;;;;;;;40.45;18.83;;;;;;;6.86;61.93;97724.97;5062419;28;20040;-76
2021/03/03 10:30:57;;;;;;;30.02;17.23;;;;;;;6.96;62.12;97718.81;5074137;28;20029;-77
2021/03/03 10:33:40;;;;;;;33.53;17.73;;;;;;;7.08;61.27;97725.31;5072922;28;20136;-77
2021/03/03 10:36:24;;;;;;;31.45;17.17;;;;;;;7.18;60.19;97717.31;5074620;28;20037;-77
2021/03/03 10:38:55;;;;;;;35.85;18.50;;;;;;;7.31;60.83;97722.84;5074337;28;20044;-76
2021/03/03 10:41:27;;;;;;;31.20;18.00;;;;;;;7.38;59.98;97720.41;5074079;28;20044;-76
2021/03/03 10:44:01;;;;;;;30.40;17.73;;;;;;;7.41;60.04;97715.66;5073527;28;20035;-76
2021/03/03 10:46:28;;;;;;;37.85;18.63;;;;;;;7.51;60.84;97712.84;5073422;28;20045;-76
2021/03/03 10:49:10;;;;;;;36.33;19.67;;;;;;;7.62;60.41;97714.28;5073576;28;20040;-76
2021/03/03 10:51:38;;;;;;;36.50;20.00;;;;;;;7.63;60.41;97710.72;5073761;28;20420;-76
2021/03/03 10:54:06;;;;;;;43.35;21.25;;;;;;;7.60;60.31;97704.03;5073517;28;20401;-77
2021/03/03 10:56:37;;;;;;;32.15;19.25;;;;;;;7.68;60.25;97697.94;5073835;28;20036;-77
2021/03/03 10:59:05;;;;;;;32.53;17.23;;;;;;;7.79;60.19;97700.22;5074323;28;20392;-76
2021/03/03 11:01:45;;;;;;;33.00;17.35;;;;;;;7.89;58.06;97686.94;5073648;28;20044;-77
2021/03/03 11:04:11;;;;;;;31.50;16.35;;;;;;;7.96;59.83;97697.50;5061649;28;20047;-76
2021/03/03 11:06:38;;;;;;;27.80;16.42;;;;;;;7.97;59.36;97692.13;5073260;28;20028;-77
2021/03/03 11:09:16;;;;;;;30.02;16.73;;;;;;;8.01;58.41;97682.97;5073769;28;20484;-77
2021/03/03 11:11:50;;;;;;;38.08;17.17;;;;;;;8.05;58.20;97681.63;5074047;28;20052;-76
2021/03/03 11:14:17;;;;;;;33.33;16.38;;;;;;;8.17;59.06;97683.84;5073358;28;20476;-77
2021/03/03 11:16:47;;;;;;;35.45;16.48;;;;;;;8.28;58.91;97688.72;5073588;28;20465;-76
2021/03/03 11:19:14;;;;;;;29.17;16.92;;;;;;;8.30;58.44;97669.25;5073208;28;20047;-77
2021/03/03 11:21:41;;;;;;;32.67;16.42;;;;;;;8.35;58.38;97660.88;5074089;28;20032;-77
2021/03/03 11:24:08;;;;;;;28.88;15.88;;;;;;;8.47;58.40;97664.75;5073179;28;20044;-77
2021/03/03 11:26:39;;;;;;;22.65;14.27;;;;;;;8.57;56.82;97645.41;5073374;28;20404;-77
2021/03/03 11:29:06;;;;;;;33.15;15.95;;;;;;;8.60;57.41;97645.88;5072899;28;20033;-77
2021/03/03 11:31:33;;;;;;;24.42;14.30;;;;;;;8.66;57.52;97641.75;5073322;28;20036;-76
2021/03/03 11:34:00;;;;;;;34.75;15.68;;;;;;;8.78;57.18;97636.88;5073098;28;20040;-77
2021/03/03 11:36:26;;;;;;;26.20;15.77;;;;;;;8.79;56.78;97635.91;5073743;28;20071;-77
2021/03/03 11:38:53;;;;;;;31.88;15.73;;;;;;;8.80;56.70;97633.13;5073513;28;20047;-77
2021/03/03 11:41:19;;;;;;;27.95;17.00;;;;;;;8.85;56.53;97633.41;5072137;28;20472;-77